Beryl, Utah
Current Conditions -  °F | °C
As of 11:53 AM on Friday 28 Nov 2014 (Local Time) from KCDC Reporting Station
Clear Clear  
Wind Chill: 63°   Ceiling: Unl
Heat Index: 63°   Visibility: 10mi
Dew Point: 13°   Wind: 12mph
Humidity: 14%   Direction: 210°SSW
Pressure: 30.1"   Gusts: 18mph
Location:  37.89°N, 113.66°W
Report Text: KCDC 281853Z AUTO 21010G16KT 10SM CLR 17/M11 A3010 RMK AO2 WSHFT 1823 SLP155 T01721106
Loading
Personal Weather Stations






























Interactive Weather Map New forecast layout! Learn more

10-Day Weather Forecast

Advertisements
Track Severe Weather on mobile